createdAt,value
2023-02-06T00:00:31.675Z,-7.09
2023-02-06T00:04:53.715Z,-7.04
2023-02-06T00:08:55.698Z,-7.00
2023-02-06T00:12:57.946Z,-7.01
2023-02-06T00:17:01.099Z,-6.95
2023-02-06T00:21:03.372Z,-6.97
2023-02-06T00:25:06.039Z,-6.93
2023-02-06T00:29:08.120Z,-6.96
2023-02-06T00:33:10.285Z,-6.98
2023-02-06T00:37:12.383Z,-6.99
2023-02-06T00:41:14.476Z,-6.99
2023-02-06T00:45:16.911Z,-6.95
2023-02-06T00:49:18.939Z,-6.92
2023-02-06T00:53:22.121Z,-6.90
2023-02-06T00:57:24.112Z,-6.85
2023-02-06T01:01:27.329Z,-6.81
2023-02-06T01:05:30.172Z,-6.77
2023-02-06T01:09:32.438Z,-6.77
2023-02-06T01:13:34.548Z,-6.85
2023-02-06T01:17:37.770Z,-6.76
2023-02-06T01:21:39.929Z,-6.73
2023-02-06T01:25:41.926Z,-6.69
2023-02-06T01:29:44.234Z,-6.75
2023-02-06T01:33:47.682Z,-6.79
2023-02-06T01:37:49.780Z,-6.81
2023-02-06T01:41:51.965Z,-6.78
2023-02-06T01:45:54.294Z,-6.76
2023-02-06T01:49:56.270Z,-6.84
2023-02-06T01:54:02.385Z,-6.84
2023-02-06T01:58:07.666Z,-6.88
2023-02-06T02:02:11.180Z,-6.92
2023-02-06T02:06:16.750Z,-6.91
2023-02-06T02:10:18.849Z,-6.91
2023-02-06T02:14:21.080Z,-6.86
2023-02-06T02:18:37.800Z,-6.87
2023-02-06T02:23:01.309Z,-6.93
2023-02-06T02:27:12.239Z,-6.93
2023-02-06T02:31:39.401Z,-6.93
2023-02-06T02:35:55.453Z,-6.97
2023-02-06T02:40:16.212Z,-6.94
2023-02-06T02:44:39.968Z,-6.92
2023-02-06T02:48:46.170Z,-6.94
2023-02-06T02:52:48.751Z,-6.99
2023-02-06T02:56:50.799Z,-7.05
2023-02-06T03:00:59.054Z,-6.92
2023-02-06T03:05:05.905Z,-7.03
2023-02-06T03:09:23.044Z,-7.00
2023-02-06T03:13:44.757Z,-7.17
2023-02-06T03:17:53.955Z,-7.10
2023-02-06T03:21:56.195Z,-7.20
2023-02-06T03:26:02.694Z,-7.26
2023-02-06T03:30:08.226Z,-7.32
2023-02-06T03:34:17.011Z,-7.34
2023-02-06T03:38:19.074Z,-7.33
2023-02-06T03:42:22.657Z,-7.43
2023-02-06T03:46:28.572Z,-7.64
2023-02-06T03:50:32.690Z,-7.60
2023-02-06T03:54:39.602Z,-7.69
2023-02-06T03:58:41.716Z,-7.73
2023-02-06T04:02:47.663Z,-7.83
2023-02-06T04:06:49.656Z,-7.91
2023-02-06T04:10:51.733Z,-8.08
2023-02-06T04:14:53.952Z,-8.02
2023-02-06T04:18:56.224Z,-8.04
2023-02-06T04:22:58.863Z,-8.16
2023-02-06T04:27:00.925Z,-8.25
2023-02-06T04:31:03.178Z,-8.31
2023-02-06T04:35:05.603Z,-8.32
2023-02-06T04:39:08.009Z,-8.35
2023-02-06T04:43:10.128Z,-8.35
2023-02-06T04:47:12.164Z,-8.40
2023-02-06T04:51:14.614Z,-8.42
2023-02-06T04:55:16.726Z,-8.50
2023-02-06T04:59:18.762Z,-8.50
2023-02-06T05:03:20.809Z,-8.61
2023-02-06T05:07:22.892Z,-8.64
2023-02-06T05:11:25.225Z,-8.69
2023-02-06T05:15:27.200Z,-8.88
2023-02-06T05:19:29.194Z,-8.83
2023-02-06T05:23:32.497Z,-9.08
2023-02-06T05:27:34.520Z,-9.02
2023-02-06T05:31:36.685Z,-9.02
2023-02-06T05:35:40.861Z,-9.05
2023-02-06T05:39:42.868Z,-9.06
2023-02-06T05:43:44.909Z,-9.27
2023-02-06T05:47:47.008Z,-9.31
2023-02-06T05:51:49.065Z,-9.25
2023-02-06T05:55:51.069Z,-9.18
2023-02-06T05:59:53.084Z,-9.15
2023-02-06T06:03:55.707Z,-9.19
2023-02-06T06:07:57.768Z,-9.13
2023-02-06T06:11:59.798Z,-9.32
2023-02-06T06:16:01.967Z,-8.98
2023-02-06T06:20:04.566Z,-9.21
2023-02-06T06:24:06.760Z,-8.94
2023-02-06T06:28:08.846Z,-8.86
2023-02-06T06:32:11.006Z,-8.72
2023-02-06T06:36:14.587Z,-8.55
2023-02-06T06:40:16.975Z,-8.33
2023-02-06T06:44:18.940Z,-8.08
2023-02-06T06:48:21.142Z,-7.88
2023-02-06T06:52:25.666Z,-7.67
2023-02-06T06:56:27.830Z,-7.43
2023-02-06T07:00:29.848Z,-7.13
2023-02-06T07:04:33.137Z,-6.93
2023-02-06T07:08:36.002Z,-6.80
2023-02-06T07:12:38.789Z,-6.51
2023-02-06T07:16:40.929Z,-6.29
2023-02-06T07:20:42.937Z,-5.96
2023-02-06T07:24:44.991Z,-5.89
2023-02-06T07:28:49.187Z,-5.65
2023-02-06T07:32:52.036Z,-5.60
2023-02-06T07:36:53.983Z,-5.53
2023-02-06T07:41:01.732Z,-5.67
2023-02-06T07:45:04.648Z,-5.56
2023-02-06T07:49:06.738Z,-5.42
2023-02-06T07:53:08.786Z,-5.14
2023-02-06T07:57:10.791Z,-4.64
2023-02-06T08:01:13.111Z,-4.57
2023-02-06T08:05:15.196Z,-4.24
2023-02-06T08:09:17.536Z,-4.31
2023-02-06T08:13:22.828Z,-4.01
2023-02-06T08:17:24.895Z,-4.01
2023-02-06T08:21:27.344Z,-3.65
2023-02-06T08:25:29.488Z,-3.65
2023-02-06T08:29:31.431Z,-3.61
2023-02-06T08:33:33.472Z,-3.47
2023-02-06T08:37:35.529Z,-3.38
2023-02-06T08:41:39.068Z,-3.43
2023-02-06T08:45:41.083Z,-3.38
2023-02-06T08:49:43.082Z,-3.21
2023-02-06T08:53:45.078Z,-3.11
2023-02-06T08:57:46.766Z,-3.18
2023-02-06T09:01:49.369Z,-3.17
2023-02-06T09:05:52.682Z,-3.28
2023-02-06T09:09:56.010Z,-2.95
2023-02-06T09:14:00.129Z,-2.89
2023-02-06T09:18:02.232Z,-2.90
2023-02-06T09:22:05.865Z,-2.68
2023-02-06T09:26:10.469Z,-2.67
2023-02-06T09:30:15.669Z,-2.53
2023-02-06T09:34:17.688Z,-2.43
2023-02-06T09:38:19.634Z,-2.12
2023-02-06T09:42:31.419Z,-1.99
2023-02-06T09:46:36.950Z,-1.80
2023-02-06T09:50:55.887Z,-1.68
2023-02-06T09:55:10.859Z,-1.38
2023-02-06T09:59:28.031Z,-1.33
2023-02-06T10:03:38.607Z,-1.25
2023-02-06T10:07:59.149Z,-1.17
2023-02-06T10:12:09.308Z,-1.06
2023-02-06T10:16:34.907Z,-1.09
2023-02-06T10:20:44.786Z,-0.91
2023-02-06T10:25:11.222Z,-0.88
2023-02-06T10:29:40.819Z,-0.84
2023-02-06T10:34:07.279Z,-0.64
2023-02-06T10:38:57.501Z,-0.59
2023-02-06T10:43:25.770Z,-0.53
2023-02-06T10:47:36.194Z,-0.61
2023-02-06T10:51:42.647Z,-0.31
2023-02-06T10:55:51.435Z,0.03
2023-02-06T10:59:58.021Z,0.31
2023-02-06T11:04:05.941Z,0.52
2023-02-06T11:08:15.788Z,0.95
2023-02-06T11:12:29.803Z,1.48
2023-02-06T11:16:36.156Z,1.47
2023-02-06T11:20:41.952Z,1.62
2023-02-06T11:25:03.528Z,1.73
2023-02-06T11:29:22.238Z,1.39
2023-02-06T11:33:33.708Z,1.60
2023-02-06T11:37:40.036Z,1.20
2023-02-06T11:41:57.744Z,1.28
2023-02-06T11:46:18.552Z,1.08
2023-02-06T11:50:35.489Z,1.01
2023-02-06T11:54:37.636Z,0.87
2023-02-06T11:58:39.642Z,0.86
2023-02-06T12:02:50.674Z,0.65
2023-02-06T12:07:03.616Z,0.67
2023-02-06T12:11:13.440Z,0.83
2023-02-06T12:15:43.701Z,0.59
2023-02-06T12:19:56.320Z,0.73
2023-02-06T12:24:02.510Z,0.94
2023-02-06T12:28:13.172Z,0.69
2023-02-06T12:32:24.159Z,0.89
2023-02-06T12:36:39.878Z,0.97
2023-02-06T12:41:00.542Z,0.83
2023-02-06T12:45:12.425Z,1.08
2023-02-06T12:49:26.068Z,0.96
2023-02-06T12:53:40.320Z,0.94
2023-02-06T12:57:42.867Z,1.14
2023-02-06T13:02:05.372Z,1.00
2023-02-06T13:06:22.148Z,1.14
2023-02-06T13:10:26.044Z,1.08
2023-02-06T13:14:29.611Z,0.91
2023-02-06T13:18:52.523Z,0.91
2023-02-06T13:23:14.674Z,0.62
2023-02-06T13:27:17.070Z,0.52
2023-02-06T13:31:25.287Z,0.41
2023-02-06T13:35:30.613Z,0.59
2023-02-06T13:39:33.324Z,0.55
2023-02-06T13:43:36.446Z,0.49
2023-02-06T13:47:59.137Z,0.44
2023-02-06T13:52:32.296Z,0.51
2023-02-06T13:56:47.553Z,0.47
2023-02-06T14:00:51.912Z,0.57
2023-02-06T14:04:54.879Z,0.60
2023-02-06T14:09:16.534Z,0.48
2023-02-06T14:13:33.193Z,0.64
2023-02-06T14:17:56.136Z,0.63
2023-02-06T14:22:11.260Z,0.50
2023-02-06T14:26:21.160Z,0.43
2023-02-06T14:30:41.485Z,0.20
2023-02-06T14:35:04.607Z,-0.09
2023-02-06T14:39:32.746Z,-0.08
2023-02-06T14:43:41.049Z,-0.14
2023-02-06T14:47:44.226Z,-0.32
2023-02-06T14:51:50.799Z,-0.37
2023-02-06T14:56:05.261Z,-0.51
2023-02-06T15:00:18.585Z,-0.50
2023-02-06T15:04:28.943Z,-0.56
2023-02-06T15:08:33.184Z,-0.66
2023-02-06T15:12:36.622Z,-0.97
2023-02-06T15:16:50.102Z,-1.12
2023-02-06T15:20:56.069Z,-1.22
2023-02-06T15:25:10.286Z,-1.38
2023-02-06T15:29:23.010Z,-1.56
2023-02-06T15:33:28.837Z,-1.78
2023-02-06T15:37:34.147Z,-1.98
2023-02-06T15:41:37.606Z,-1.94
2023-02-06T15:45:41.405Z,-2.00
2023-02-06T15:49:47.178Z,-2.14
2023-02-06T15:53:51.701Z,-2.20
2023-02-06T15:57:56.988Z,-2.25
2023-02-06T16:01:59.759Z,-2.25
2023-02-06T16:06:01.835Z,-2.39
2023-02-06T16:10:22.530Z,-2.51
2023-02-06T16:14:35.591Z,-2.71
2023-02-06T16:18:39.729Z,-2.83
2023-02-06T16:22:41.826Z,-2.95
2023-02-06T16:26:52.417Z,-3.02
2023-02-06T16:30:59.078Z,-3.08
2023-02-06T16:35:01.379Z,-3.23
2023-02-06T16:39:04.765Z,-3.30
2023-02-06T16:43:11.471Z,-3.39
2023-02-06T16:47:16.147Z,-3.39
2023-02-06T16:51:21.072Z,-3.48
2023-02-06T16:55:25.920Z,-3.58
2023-02-06T16:59:28.044Z,-3.70
2023-02-06T17:03:32.545Z,-3.81
2023-02-06T17:07:35.183Z,-3.89
2023-02-06T17:11:37.699Z,-3.90
2023-02-06T17:15:39.936Z,-4.16
2023-02-06T17:19:42.233Z,-4.20
2023-02-06T17:23:44.905Z,-4.28
2023-02-06T17:27:47.084Z,-4.29
2023-02-06T17:31:49.259Z,-4.48
2023-02-06T17:35:51.420Z,-4.68
2023-02-06T17:39:53.727Z,-4.55
2023-02-06T17:43:55.736Z,-4.66
2023-02-06T17:47:57.895Z,-4.84
2023-02-06T17:52:00.027Z,-4.87
2023-02-06T17:56:12.869Z,-4.91
2023-02-06T18:00:17.897Z,-4.88
2023-02-06T18:04:21.386Z,-5.03
2023-02-06T18:08:23.665Z,-4.97
2023-02-06T18:12:25.979Z,-4.74
2023-02-06T18:16:29.027Z,-4.46
2023-02-06T18:20:31.520Z,-4.30
2023-02-06T18:24:33.668Z,-4.13
2023-02-06T18:28:39.374Z,-4.02
2023-02-06T18:32:41.532Z,-3.92
2023-02-06T18:36:43.565Z,-3.88
2023-02-06T18:40:46.758Z,-4.00
2023-02-06T18:44:48.818Z,-4.13
2023-02-06T18:48:50.860Z,-4.10
2023-02-06T18:52:52.966Z,-4.02
2023-02-06T18:56:55.044Z,-4.02
2023-02-06T19:00:57.129Z,-4.03
2023-02-06T19:04:59.301Z,-4.05
2023-02-06T19:09:02.245Z,-4.12
2023-02-06T19:13:05.034Z,-4.20
2023-02-06T19:17:07.224Z,-4.01
2023-02-06T19:21:16.204Z,-3.80
2023-02-06T19:25:19.324Z,-3.90
2023-02-06T19:29:34.726Z,-3.77
2023-02-06T19:33:39.218Z,-3.66
2023-02-06T19:37:41.350Z,-3.68
2023-02-06T19:41:43.356Z,-3.71
2023-02-06T19:45:45.398Z,-3.60
2023-02-06T19:49:51.501Z,-3.61
2023-02-06T19:53:54.962Z,-3.47
2023-02-06T19:57:57.151Z,-3.47
2023-02-06T20:02:01.641Z,-3.50
2023-02-06T20:06:10.510Z,-3.41
2023-02-06T20:10:12.522Z,-3.31
2023-02-06T20:14:14.781Z,-3.35
2023-02-06T20:18:16.832Z,-3.46
2023-02-06T20:22:19.061Z,-3.38
2023-02-06T20:26:22.451Z,-3.48
2023-02-06T20:30:24.647Z,-3.50
2023-02-06T20:34:27.189Z,-3.59
2023-02-06T20:38:29.665Z,-3.59
2023-02-06T20:42:32.306Z,-3.50
2023-02-06T20:46:36.186Z,-3.44
2023-02-06T20:50:38.491Z,-3.45
2023-02-06T20:54:41.056Z,-3.45
2023-02-06T20:58:44.308Z,-3.48
2023-02-06T21:02:46.533Z,-3.40
2023-02-06T21:06:49.966Z,-3.28
2023-02-06T21:10:53.189Z,-3.17
2023-02-06T21:14:55.740Z,-3.19
2023-02-06T21:18:58.788Z,-3.34
2023-02-06T21:23:00.873Z,-3.14
2023-02-06T21:27:02.933Z,-3.22
2023-02-06T21:31:08.119Z,-3.44
2023-02-06T21:35:10.662Z,-3.46
2023-02-06T21:39:20.260Z,-3.59
2023-02-06T21:43:22.369Z,-3.78
2023-02-06T21:47:24.359Z,-3.90
2023-02-06T21:51:27.078Z,-4.05
2023-02-06T21:55:31.572Z,-4.38
2023-02-06T21:59:34.286Z,-4.40
2023-02-06T22:03:36.379Z,-4.72
2023-02-06T22:07:38.552Z,-4.79
2023-02-06T22:11:41.463Z,-4.91
2023-02-06T22:15:51.373Z,-4.96
2023-02-06T22:19:54.417Z,-5.12
2023-02-06T22:23:58.972Z,-5.11
2023-02-06T22:28:01.143Z,-5.22
2023-02-06T22:32:04.678Z,-5.00
2023-02-06T22:36:09.419Z,-4.75
2023-02-06T22:40:11.635Z,-4.54
2023-02-06T22:44:17.813Z,-4.27
2023-02-06T22:48:20.039Z,-4.36
2023-02-06T22:52:40.728Z,-4.09
2023-02-06T22:56:43.652Z,-4.03
2023-02-06T23:00:45.941Z,-3.90
2023-02-06T23:04:48.146Z,-3.69
2023-02-06T23:08:50.325Z,-3.48
2023-02-06T23:12:52.494Z,-3.35
2023-02-06T23:16:54.667Z,-3.26
2023-02-06T23:21:02.931Z,-3.16
2023-02-06T23:25:05.217Z,-3.10
2023-02-06T23:29:08.273Z,-2.97
2023-02-06T23:33:10.873Z,-2.95
2023-02-06T23:37:13.476Z,-2.93
2023-02-06T23:41:20.711Z,-2.77
2023-02-06T23:45:22.759Z,-2.83
2023-02-06T23:49:24.899Z,-2.85
2023-02-06T23:53:27.544Z,-2.80
2023-02-06T23:57:29.266Z,-2.86
